createdAt,value
2019-03-25T00:00:08.868Z,100.00
2019-03-25T00:02:37.170Z,100.00
2019-03-25T00:05:06.589Z,100.00
2019-03-25T00:07:34.883Z,100.00
2019-03-25T00:10:03.931Z,100.00
2019-03-25T00:12:32.217Z,100.00
2019-03-25T00:15:00.527Z,100.00
2019-03-25T00:17:28.790Z,100.00
2019-03-25T00:19:57.143Z,100.00
2019-03-25T00:22:25.402Z,100.00
2019-03-25T00:24:53.745Z,100.00
2019-03-25T00:27:22.021Z,100.00
2019-03-25T00:29:50.295Z,100.00
2019-03-25T00:32:18.564Z,100.00
2019-03-25T00:34:46.823Z,100.00
2019-03-25T00:37:15.081Z,100.00
2019-03-25T00:39:43.357Z,100.00
2019-03-25T00:42:11.613Z,100.00
2019-03-25T00:44:39.883Z,100.00
2019-03-25T00:47:08.281Z,100.00
2019-03-25T00:49:36.563Z,100.00
2019-03-25T00:52:04.835Z,100.00
2019-03-25T00:54:33.094Z,100.00
2019-03-25T00:57:01.428Z,100.00
2019-03-25T00:59:29.701Z,100.00
2019-03-25T01:01:57.988Z,100.00
2019-03-25T01:04:26.268Z,100.00
2019-03-25T01:06:54.604Z,100.00
2019-03-25T01:09:22.870Z,100.00
2019-03-25T01:11:51.144Z,100.00
2019-03-25T01:14:19.405Z,100.00
2019-03-25T01:16:47.759Z,100.00
2019-03-25T01:19:16.037Z,100.00
2019-03-25T01:21:44.398Z,100.00
2019-03-25T01:24:12.698Z,100.00
2019-03-25T01:26:41.010Z,100.00
2019-03-25T01:29:09.349Z,100.00
2019-03-25T01:31:37.644Z,100.00
2019-03-25T01:34:05.980Z,100.00
2019-03-25T01:36:34.277Z,100.00
2019-03-25T01:39:02.695Z,100.00
2019-03-25T01:41:30.986Z,100.00
2019-03-25T01:43:59.282Z,100.00
2019-03-25T01:46:27.676Z,100.00
2019-03-25T01:48:55.982Z,100.00
2019-03-25T01:51:24.265Z,100.00
2019-03-25T01:53:52.547Z,100.00
2019-03-25T01:56:21.007Z,100.00
2019-03-25T01:58:49.275Z,100.00
2019-03-25T02:01:17.615Z,100.00
2019-03-25T02:03:45.904Z,100.00
2019-03-25T02:06:14.172Z,100.00
2019-03-25T02:08:42.739Z,100.00
2019-03-25T02:11:11.087Z,100.00
2019-03-25T02:13:39.377Z,100.00
2019-03-25T02:16:07.787Z,100.00
2019-03-25T02:18:36.175Z,100.00
2019-03-25T02:21:05.234Z,100.00
2019-03-25T02:23:33.580Z,100.00
2019-03-25T02:26:01.829Z,100.00
2019-03-25T02:28:30.087Z,100.00
2019-03-25T02:30:58.418Z,100.00
2019-03-25T02:33:26.842Z,100.00
2019-03-25T02:35:55.181Z,100.00
2019-03-25T02:38:23.470Z,100.00
2019-03-25T02:40:51.926Z,100.00
2019-03-25T02:43:20.197Z,100.00
2019-03-25T02:45:48.513Z,100.00
2019-03-25T02:48:16.848Z,100.00
2019-03-25T02:50:45.180Z,100.00
2019-03-25T02:53:13.546Z,100.00
2019-03-25T02:55:42.671Z,100.00
2019-03-25T02:58:11.125Z,100.00
2019-03-25T03:00:39.431Z,100.00
2019-03-25T03:03:07.968Z,100.00
2019-03-25T03:05:36.828Z,100.00
2019-03-25T03:08:05.100Z,100.00
2019-03-25T03:10:33.409Z,100.00
2019-03-25T03:13:01.719Z,100.00
2019-03-25T03:15:30.040Z,100.00
2019-03-25T03:17:58.373Z,100.00
2019-03-25T03:20:26.789Z,100.00
2019-03-25T03:22:55.213Z,100.00
2019-03-25T03:25:23.528Z,100.00
2019-03-25T03:27:51.980Z,100.00
2019-03-25T03:30:20.314Z,100.00
2019-03-25T03:32:48.598Z,100.00
2019-03-25T03:35:16.894Z,100.00
2019-03-25T03:37:45.294Z,100.00
2019-03-25T03:40:13.592Z,100.00
2019-03-25T03:42:41.843Z,100.00
2019-03-25T03:45:10.713Z,100.00
2019-03-25T03:47:39.092Z,100.00
2019-03-25T03:50:07.562Z,100.00
2019-03-25T03:52:36.207Z,100.00
2019-03-25T03:55:05.849Z,100.00
2019-03-25T03:57:34.103Z,100.00
2019-03-25T04:00:02.590Z,100.00
2019-03-25T04:02:30.838Z,100.00
2019-03-25T04:04:59.088Z,100.00
2019-03-25T04:07:27.391Z,100.00
2019-03-25T04:09:55.683Z,100.00
2019-03-25T04:12:23.982Z,100.00
2019-03-25T04:14:52.262Z,100.00
2019-03-25T04:17:20.552Z,100.00
2019-03-25T04:19:48.882Z,100.00
2019-03-25T04:22:17.230Z,100.00
2019-03-25T04:24:45.712Z,100.00
2019-03-25T04:27:15.815Z,100.00
2019-03-25T04:29:44.111Z,100.00
2019-03-25T04:32:12.777Z,100.00
2019-03-25T04:34:41.042Z,100.00
2019-03-25T04:37:09.389Z,100.00
2019-03-25T04:39:37.777Z,100.00
2019-03-25T04:42:09.082Z,100.00
2019-03-25T04:44:37.498Z,100.00
2019-03-25T04:47:05.821Z,100.00
2019-03-25T04:49:34.305Z,100.00
2019-03-25T04:52:02.850Z,100.00
2019-03-25T04:54:31.324Z,100.00
2019-03-25T04:56:59.783Z,100.00
2019-03-25T04:59:28.041Z,100.00
2019-03-25T05:01:56.316Z,100.00
2019-03-25T05:04:32.535Z,100.00
2019-03-25T05:07:00.939Z,100.00
2019-03-25T05:09:29.462Z,100.00
2019-03-25T05:11:57.953Z,100.00
2019-03-25T05:14:26.376Z,100.00
2019-03-25T05:16:54.812Z,100.00
2019-03-25T05:19:23.326Z,100.00
2019-03-25T05:21:51.771Z,100.00
2019-03-25T05:24:20.050Z,100.00
2019-03-25T05:26:51.339Z,100.00
2019-03-25T05:29:18.361Z,100.00
2019-03-25T05:31:48.487Z,100.00
2019-03-25T05:34:17.018Z,100.00
2019-03-25T05:36:45.404Z,100.00
2019-03-25T05:39:14.933Z,100.00
2019-03-25T05:41:43.479Z,100.00
2019-03-25T05:44:11.839Z,100.00
2019-03-25T05:46:40.254Z,100.00
2019-03-25T05:49:08.627Z,100.00
2019-03-25T05:51:37.082Z,100.00
2019-03-25T05:54:05.527Z,100.00
2019-03-25T05:56:34.496Z,100.00
2019-03-25T05:59:02.754Z,100.00
2019-03-25T06:01:31.563Z,100.00
2019-03-25T06:03:59.840Z,100.00
2019-03-25T06:06:28.154Z,100.00
2019-03-25T06:08:56.430Z,100.00
2019-03-25T06:11:24.788Z,100.00
2019-03-25T06:13:53.023Z,100.00
2019-03-25T06:16:21.297Z,100.00
2019-03-25T06:18:49.598Z,100.00
2019-03-25T06:21:17.982Z,100.00
2019-03-25T06:23:46.371Z,100.00
2019-03-25T06:26:14.862Z,100.00
2019-03-25T06:28:43.334Z,100.00
2019-03-25T06:31:11.783Z,100.00
2019-03-25T06:33:40.094Z,100.00
2019-03-25T06:36:08.421Z,100.00
2019-03-25T06:38:36.860Z,100.00
2019-03-25T06:41:05.193Z,100.00
2019-03-25T06:43:33.463Z,100.00
2019-03-25T06:46:01.775Z,100.00
2019-03-25T06:48:30.066Z,100.00
2019-03-25T06:50:58.366Z,100.00
2019-03-25T06:53:26.660Z,100.00
2019-03-25T06:55:55.059Z,100.00
2019-03-25T06:58:23.326Z,100.00
2019-03-25T07:00:51.761Z,100.00
2019-03-25T07:03:20.074Z,100.00
2019-03-25T07:05:48.417Z,100.00
2019-03-25T07:08:16.716Z,100.00
2019-03-25T07:10:45.002Z,100.00
2019-03-25T07:13:13.251Z,100.00
2019-03-25T07:15:44.067Z,99.45
2019-03-25T07:18:11.528Z,98.68
2019-03-25T07:20:39.824Z,97.02
2019-03-25T07:23:10.586Z,96.76
2019-03-25T07:25:39.004Z,94.84
2019-03-25T07:28:07.459Z,95.02
2019-03-25T07:30:35.737Z,91.15
2019-03-25T07:33:04.036Z,88.58
2019-03-25T07:35:32.349Z,83.49
2019-03-25T07:38:00.702Z,85.86
2019-03-25T07:40:29.072Z,82.73
2019-03-25T07:42:57.356Z,84.34
2019-03-25T07:45:25.683Z,82.60
2019-03-25T07:47:53.944Z,82.13
2019-03-25T07:50:22.202Z,80.43
2019-03-25T07:52:50.475Z,82.02
2019-03-25T07:55:18.734Z,78.31
2019-03-25T07:57:48.499Z,81.47
2019-03-25T08:00:17.302Z,76.36
2019-03-25T08:02:45.565Z,71.40
2019-03-25T08:05:13.986Z,72.04
2019-03-25T08:07:42.257Z,71.12
2019-03-25T08:10:10.554Z,70.73
2019-03-25T08:12:38.802Z,71.41
2019-03-25T08:15:07.413Z,70.99
2019-03-25T08:17:35.685Z,66.30
2019-03-25T08:20:08.430Z,64.88
2019-03-25T08:22:36.689Z,63.37
2019-03-25T08:25:06.519Z,60.61
2019-03-25T08:27:34.773Z,61.00
2019-03-25T08:30:03.394Z,62.04
2019-03-25T08:32:31.666Z,62.19
2019-03-25T08:34:59.946Z,60.26
2019-03-25T08:37:28.201Z,57.83
2019-03-25T08:39:56.459Z,58.04
2019-03-25T08:42:26.371Z,58.17
2019-03-25T08:44:54.631Z,55.23
2019-03-25T08:47:22.986Z,53.13
2019-03-25T08:49:51.221Z,53.46
2019-03-25T08:52:19.507Z,53.29
2019-03-25T08:54:47.894Z,53.16
2019-03-25T08:57:18.016Z,53.99
2019-03-25T08:59:46.489Z,53.91
2019-03-25T09:02:14.933Z,54.24
2019-03-25T09:04:43.211Z,53.12
2019-03-25T09:07:11.474Z,49.58
2019-03-25T09:09:39.724Z,51.56
2019-03-25T09:12:07.982Z,50.38
2019-03-25T09:14:36.240Z,47.84
2019-03-25T09:17:04.567Z,48.53
2019-03-25T09:19:32.833Z,48.44
2019-03-25T09:22:01.121Z,46.41
2019-03-25T09:24:29.371Z,46.65
2019-03-25T09:26:57.630Z,45.97
2019-03-25T09:29:26.126Z,47.38
2019-03-25T09:31:54.373Z,47.64
2019-03-25T09:34:22.771Z,48.25
2019-03-25T09:36:51.149Z,47.82
2019-03-25T09:39:19.418Z,47.68
2019-03-25T09:41:47.704Z,48.27
2019-03-25T09:44:15.951Z,48.45
2019-03-25T09:46:44.215Z,48.17
2019-03-25T09:49:12.475Z,48.17
2019-03-25T09:51:40.893Z,48.32
2019-03-25T09:54:09.252Z,48.63
2019-03-25T09:56:37.668Z,49.78
2019-03-25T09:59:05.932Z,50.38
2019-03-25T10:01:34.385Z,50.84
2019-03-25T10:04:02.701Z,51.65
2019-03-25T10:06:31.107Z,52.70
2019-03-25T10:08:59.429Z,52.74
2019-03-25T10:11:27.815Z,53.88
2019-03-25T10:13:56.214Z,54.52
2019-03-25T10:16:24.586Z,55.22
2019-03-25T10:18:52.947Z,55.51
2019-03-25T10:21:21.270Z,55.73
2019-03-25T10:23:49.585Z,54.47
2019-03-25T10:26:17.946Z,53.97
2019-03-25T10:28:48.843Z,54.76
2019-03-25T10:31:17.500Z,54.55
2019-03-25T10:33:45.983Z,54.29
2019-03-25T10:36:14.329Z,54.43
2019-03-25T10:38:42.681Z,52.97
2019-03-25T10:41:11.037Z,53.41
2019-03-25T10:43:39.448Z,52.66
2019-03-25T10:46:07.759Z,53.15
2019-03-25T10:48:36.190Z,52.80
2019-03-25T10:51:04.613Z,52.68
2019-03-25T10:53:32.878Z,53.02
2019-03-25T10:56:01.249Z,54.21
2019-03-25T10:58:29.687Z,55.89
2019-03-25T11:00:57.943Z,58.16
2019-03-25T11:03:26.192Z,61.49
2019-03-25T11:05:54.455Z,61.52
2019-03-25T11:08:22.715Z,60.39
2019-03-25T11:10:51.094Z,57.48
2019-03-25T11:13:19.389Z,56.75
2019-03-25T11:15:47.666Z,57.21
2019-03-25T11:18:15.992Z,57.26
2019-03-25T11:20:44.507Z,58.20
2019-03-25T11:23:12.821Z,57.86
2019-03-25T11:25:41.088Z,58.90
2019-03-25T11:28:09.338Z,59.63
2019-03-25T11:30:51.626Z,56.24
2019-03-25T11:33:20.007Z,55.69
2019-03-25T11:35:48.286Z,55.84
2019-03-25T11:38:16.568Z,57.85
2019-03-25T11:40:44.959Z,58.24
2019-03-25T11:43:13.307Z,61.04
2019-03-25T11:45:41.691Z,61.52
2019-03-25T11:48:10.024Z,62.17
2019-03-25T11:50:38.349Z,70.11
2019-03-25T11:53:06.720Z,79.25
2019-03-25T11:55:35.069Z,79.40
2019-03-25T11:58:03.467Z,79.42
2019-03-25T12:00:31.888Z,73.95
2019-03-25T12:03:00.152Z,73.51
2019-03-25T12:05:28.471Z,73.75
2019-03-25T12:07:56.760Z,73.46
2019-03-25T12:10:25.125Z,73.02
2019-03-25T12:12:53.475Z,73.09
2019-03-25T12:15:21.726Z,74.67
2019-03-25T12:17:50.072Z,76.91
2019-03-25T12:20:18.405Z,75.30
2019-03-25T12:22:46.748Z,84.68
2019-03-25T12:25:15.102Z,92.59
2019-03-25T12:27:43.534Z,100.00
2019-03-25T12:30:11.828Z,100.00
2019-03-25T12:32:40.148Z,100.00
2019-03-25T12:35:08.580Z,100.00
2019-03-25T12:37:36.892Z,100.00
2019-03-25T12:40:07.745Z,100.00
2019-03-25T12:42:35.628Z,100.00
2019-03-25T12:45:05.817Z,100.00
2019-03-25T12:47:34.126Z,100.00
2019-03-25T12:50:02.431Z,100.00
2019-03-25T12:52:31.067Z,100.00
2019-03-25T12:54:59.308Z,100.00
2019-03-25T12:57:27.719Z,96.80
2019-03-25T12:59:56.336Z,90.68
2019-03-25T13:02:24.841Z,90.66
2019-03-25T13:04:53.345Z,88.81
2019-03-25T13:07:21.623Z,88.39
2019-03-25T13:09:49.892Z,83.73
2019-03-25T13:12:18.285Z,77.98
2019-03-25T13:14:46.667Z,79.78
2019-03-25T13:17:15.288Z,78.92
2019-03-25T13:19:43.745Z,80.01
2019-03-25T13:22:12.019Z,78.37
2019-03-25T13:24:41.349Z,77.34
2019-03-25T13:27:10.521Z,73.00
2019-03-25T13:29:38.866Z,72.51
2019-03-25T13:32:07.215Z,69.96
2019-03-25T13:34:35.610Z,67.02
2019-03-25T13:37:04.032Z,64.37
2019-03-25T13:39:32.583Z,63.66
2019-03-25T13:42:01.004Z,64.72
2019-03-25T13:44:29.275Z,62.78
2019-03-25T13:46:57.531Z,61.45
2019-03-25T13:49:25.878Z,61.15
2019-03-25T13:51:54.183Z,62.76
2019-03-25T13:54:22.525Z,63.78
2019-03-25T13:56:50.809Z,66.92
2019-03-25T13:59:19.078Z,64.46
2019-03-25T14:01:47.360Z,65.46
2019-03-25T14:04:15.611Z,67.53
2019-03-25T14:06:43.916Z,72.56
2019-03-25T14:09:12.168Z,73.47
2019-03-25T14:11:40.431Z,71.37
2019-03-25T14:14:08.716Z,73.04
2019-03-25T14:16:37.066Z,71.48
2019-03-25T14:19:05.319Z,68.23
2019-03-25T14:21:33.586Z,67.32
2019-03-25T14:24:01.852Z,63.40
2019-03-25T14:26:30.116Z,60.64
2019-03-25T14:28:58.432Z,59.74
2019-03-25T14:31:26.756Z,57.35
2019-03-25T14:33:55.034Z,57.80
2019-03-25T14:36:23.287Z,58.52
2019-03-25T14:38:51.548Z,59.47
2019-03-25T14:41:19.835Z,61.80
2019-03-25T14:43:48.100Z,93.22
2019-03-25T14:46:16.368Z,100.00
2019-03-25T14:48:44.643Z,100.00
2019-03-25T14:51:13.033Z,100.00
2019-03-25T14:53:45.091Z,100.00
2019-03-25T14:56:11.247Z,100.00
2019-03-25T14:58:39.535Z,100.00
2019-03-25T15:01:07.799Z,100.00
2019-03-25T15:03:36.104Z,100.00
2019-03-25T15:06:04.470Z,100.00
2019-03-25T15:08:32.725Z,100.00
2019-03-25T15:11:00.982Z,100.00
2019-03-25T15:13:29.300Z,100.00
2019-03-25T15:15:57.525Z,100.00
2019-03-25T15:18:25.776Z,100.00
2019-03-25T15:20:54.044Z,100.00
2019-03-25T15:23:22.377Z,100.00
2019-03-25T15:25:50.657Z,100.00
2019-03-25T15:28:18.907Z,100.00
2019-03-25T15:30:47.166Z,100.00
2019-03-25T15:33:15.444Z,100.00
2019-03-25T15:35:43.742Z,100.00
2019-03-25T15:38:12.020Z,100.00
2019-03-25T15:40:40.276Z,100.00
2019-03-25T15:43:08.553Z,100.00
2019-03-25T15:45:36.810Z,100.00
2019-03-25T15:48:05.078Z,100.00
2019-03-25T15:50:33.322Z,100.00
2019-03-25T15:53:01.593Z,100.00
2019-03-25T15:55:29.835Z,100.00
2019-03-25T15:57:58.101Z,100.00
2019-03-25T16:00:26.365Z,100.00
2019-03-25T16:02:54.622Z,100.00
2019-03-25T16:05:22.882Z,100.00
2019-03-25T16:07:51.143Z,100.00
2019-03-25T16:10:19.398Z,100.00
2019-03-25T16:12:47.660Z,100.00
2019-03-25T16:15:19.255Z,100.00
2019-03-25T16:17:47.649Z,100.00
2019-03-25T16:20:15.911Z,100.00
2019-03-25T16:22:46.418Z,100.00
2019-03-25T16:25:17.599Z,100.00
2019-03-25T16:27:46.001Z,100.00
2019-03-25T16:30:14.501Z,100.00
2019-03-25T16:32:42.977Z,100.00
2019-03-25T16:35:11.658Z,100.00
2019-03-25T16:37:40.086Z,100.00
2019-03-25T16:40:08.412Z,100.00
2019-03-25T16:42:36.876Z,100.00
2019-03-25T16:45:05.386Z,100.00
2019-03-25T16:47:33.868Z,100.00
2019-03-25T16:50:02.277Z,100.00
2019-03-25T16:52:30.716Z,100.00
2019-03-25T16:54:59.090Z,100.00
2019-03-25T16:57:29.067Z,100.00
2019-03-25T16:59:57.329Z,100.00
2019-03-25T17:02:25.753Z,100.00
2019-03-25T17:04:54.179Z,100.00
2019-03-25T17:07:22.642Z,100.00
2019-03-25T17:09:50.911Z,100.00
2019-03-25T17:12:19.166Z,100.00
2019-03-25T17:14:47.505Z,100.00
2019-03-25T17:17:15.751Z,100.00
2019-03-25T17:19:44.008Z,100.00
2019-03-25T17:22:12.281Z,100.00
2019-03-25T17:24:40.541Z,100.00
2019-03-25T17:27:08.797Z,100.00
2019-03-25T17:29:37.041Z,100.00
2019-03-25T17:32:05.297Z,100.00
2019-03-25T17:34:33.609Z,100.00
2019-03-25T17:37:01.816Z,100.00
2019-03-25T17:39:30.074Z,100.00
2019-03-25T17:41:58.357Z,100.00
2019-03-25T17:44:26.635Z,100.00
2019-03-25T17:46:54.887Z,100.00
2019-03-25T17:49:23.138Z,100.00
2019-03-25T17:51:51.399Z,100.00
2019-03-25T17:54:19.662Z,100.00
2019-03-25T17:56:47.918Z,100.00
2019-03-25T17:59:16.181Z,100.00
2019-03-25T18:01:44.425Z,100.00
2019-03-25T18:04:12.682Z,100.00
2019-03-25T18:06:40.938Z,100.00
2019-03-25T18:09:09.189Z,100.00
2019-03-25T18:11:37.444Z,100.00
2019-03-25T18:14:05.692Z,100.00
2019-03-25T18:16:33.962Z,100.00
2019-03-25T18:19:02.215Z,100.00
2019-03-25T18:21:30.632Z,100.00
2019-03-25T18:23:58.892Z,100.00
2019-03-25T18:26:27.148Z,100.00
2019-03-25T18:28:55.413Z,100.00
2019-03-25T18:31:23.675Z,100.00
2019-03-25T18:33:51.926Z,100.00
2019-03-25T18:36:20.186Z,100.00
2019-03-25T18:38:48.436Z,100.00
2019-03-25T18:41:16.691Z,100.00
2019-03-25T18:43:45.055Z,100.00
2019-03-25T18:46:13.292Z,100.00
2019-03-25T18:48:41.539Z,100.00
2019-03-25T18:51:09.796Z,100.00
2019-03-25T18:53:38.057Z,100.00
2019-03-25T18:56:06.309Z,100.00
2019-03-25T18:58:34.588Z,100.00
2019-03-25T19:01:02.842Z,100.00
2019-03-25T19:03:31.168Z,100.00
2019-03-25T19:05:59.429Z,100.00
2019-03-25T19:08:27.690Z,100.00
2019-03-25T19:10:55.977Z,100.00
2019-03-25T19:13:25.170Z,100.00
2019-03-25T19:15:53.420Z,100.00
2019-03-25T19:18:21.719Z,100.00
2019-03-25T19:20:49.971Z,100.00
2019-03-25T19:23:18.244Z,100.00
2019-03-25T19:25:46.514Z,100.00
2019-03-25T19:28:14.803Z,100.00
2019-03-25T19:30:43.393Z,100.00
2019-03-25T19:33:13.269Z,100.00
2019-03-25T19:35:41.527Z,100.00
2019-03-25T19:38:10.253Z,100.00
2019-03-25T19:40:38.468Z,100.00
2019-03-25T19:43:06.792Z,100.00
2019-03-25T19:45:35.101Z,100.00
2019-03-25T19:48:03.388Z,100.00
2019-03-25T19:50:31.649Z,100.00
2019-03-25T19:52:59.927Z,100.00
2019-03-25T19:55:28.180Z,100.00
2019-03-25T19:57:56.477Z,100.00
2019-03-25T20:00:33.467Z,100.00
2019-03-25T20:03:01.722Z,100.00
2019-03-25T20:05:30.017Z,100.00
2019-03-25T20:07:58.362Z,100.00
2019-03-25T20:10:34.795Z,100.00
2019-03-25T20:13:03.140Z,100.00
2019-03-25T20:15:45.008Z,100.00
2019-03-25T20:18:01.456Z,100.00
2019-03-25T20:20:29.759Z,100.00
2019-03-25T20:22:58.021Z,100.00
2019-03-25T20:25:26.311Z,100.00
2019-03-25T20:27:54.580Z,100.00
2019-03-25T20:30:22.820Z,100.00
2019-03-25T20:32:51.116Z,100.00
2019-03-25T20:35:19.352Z,100.00
2019-03-25T20:37:48.484Z,100.00
2019-03-25T20:40:16.752Z,100.00
2019-03-25T20:42:45.011Z,100.00
2019-03-25T20:45:13.386Z,100.00
2019-03-25T20:47:41.633Z,100.00
2019-03-25T20:50:09.892Z,100.00
2019-03-25T20:52:38.165Z,100.00
2019-03-25T20:55:07.398Z,100.00
2019-03-25T20:57:35.645Z,100.00
2019-03-25T21:00:08.217Z,100.00
2019-03-25T21:02:44.962Z,100.00
2019-03-25T21:05:07.038Z,100.00
2019-03-25T21:07:35.350Z,100.00
2019-03-25T21:10:05.929Z,100.00
2019-03-25T21:12:34.230Z,100.00
2019-03-25T21:15:02.803Z,100.00
2019-03-25T21:17:31.198Z,100.00
2019-03-25T21:19:59.440Z,100.00
2019-03-25T21:22:27.693Z,100.00
2019-03-25T21:24:56.003Z,100.00
2019-03-25T21:27:24.251Z,100.00
2019-03-25T21:29:52.622Z,100.00
2019-03-25T21:32:20.949Z,100.00
2019-03-25T21:34:49.250Z,100.00
2019-03-25T21:37:17.582Z,100.00
2019-03-25T21:39:45.927Z,100.00
2019-03-25T21:42:14.431Z,100.00
2019-03-25T21:44:42.861Z,100.00
2019-03-25T21:47:11.231Z,100.00
2019-03-25T21:49:41.244Z,100.00
2019-03-25T21:52:09.599Z,100.00
2019-03-25T21:54:37.914Z,100.00
2019-03-25T21:57:06.290Z,100.00
2019-03-25T21:59:34.596Z,100.00
2019-03-25T22:02:02.970Z,100.00
2019-03-25T22:04:31.336Z,100.00
2019-03-25T22:06:59.693Z,100.00
2019-03-25T22:09:28.120Z,100.00
2019-03-25T22:11:56.457Z,100.00
2019-03-25T22:14:24.720Z,100.00
2019-03-25T22:16:53.070Z,100.00
2019-03-25T22:19:21.355Z,100.00
2019-03-25T22:21:49.649Z,100.00
2019-03-25T22:24:17.997Z,100.00
2019-03-25T22:26:46.329Z,100.00
2019-03-25T22:29:14.701Z,100.00
2019-03-25T22:31:43.019Z,100.00
2019-03-25T22:34:11.471Z,100.00
2019-03-25T22:36:39.824Z,100.00
2019-03-25T22:39:09.279Z,100.00
2019-03-25T22:41:37.609Z,100.00
2019-03-25T22:44:06.027Z,100.00
2019-03-25T22:46:34.317Z,100.00
2019-03-25T22:49:05.095Z,100.00
2019-03-25T22:51:33.426Z,100.00
2019-03-25T22:54:01.792Z,100.00
2019-03-25T22:56:30.071Z,100.00
2019-03-25T22:58:58.385Z,100.00
2019-03-25T23:01:26.815Z,100.00
2019-03-25T23:03:55.106Z,100.00
2019-03-25T23:06:23.456Z,100.00
2019-03-25T23:08:51.748Z,100.00
2019-03-25T23:11:20.129Z,100.00
2019-03-25T23:13:48.436Z,100.00
2019-03-25T23:16:16.717Z,100.00
2019-03-25T23:18:44.999Z,100.00
2019-03-25T23:21:13.285Z,100.00
2019-03-25T23:23:44.506Z,100.00
2019-03-25T23:26:12.895Z,100.00
2019-03-25T23:28:41.221Z,100.00
2019-03-25T23:31:09.529Z,100.00
2019-03-25T23:33:37.828Z,100.00
2019-03-25T23:36:06.169Z,100.00
2019-03-25T23:38:34.446Z,100.00
2019-03-25T23:41:02.735Z,100.00
2019-03-25T23:43:31.052Z,100.00
2019-03-25T23:45:59.308Z,100.00
2019-03-25T23:48:27.604Z,100.00
2019-03-25T23:50:56.015Z,100.00
2019-03-25T23:53:24.310Z,100.00
2019-03-25T23:55:52.682Z,100.00
2019-03-25T23:58:20.988Z,100.00
